createdAt,value
2022-10-11T00:00:13.199Z,99474.22
2022-10-11T00:02:50.590Z,99470.75
2022-10-11T00:05:30.796Z,99470.47
2022-10-11T00:08:12.123Z,99468.94
2022-10-11T00:10:59.917Z,99465.63
2022-10-11T00:13:40.467Z,99465.88
2022-10-11T00:16:19.558Z,99465.50
2022-10-11T00:18:59.395Z,99468.22
2022-10-11T00:21:37.141Z,99472.09
2022-10-11T00:24:17.438Z,99468.56
2022-10-11T00:26:55.850Z,99467.91
2022-10-11T00:29:36.780Z,99471.25
2022-10-11T00:32:16.971Z,99463.16
2022-10-11T00:34:59.051Z,99464.31
2022-10-11T00:37:38.723Z,99459.97
2022-10-11T00:40:20.917Z,99459.84
2022-10-11T00:42:59.434Z,99460.56
2022-10-11T00:45:47.567Z,99450.69
2022-10-11T00:48:33.636Z,99455.44
2022-10-11T00:51:37.866Z,99459.09
2022-10-11T00:54:20.620Z,99454.16
2022-10-11T00:57:07.089Z,99459.47
2022-10-11T00:59:49.478Z,99454.78
2022-10-11T01:02:31.034Z,99456.38
2022-10-11T01:05:28.675Z,99450.28
2022-10-11T01:08:09.492Z,99454.44
2022-10-11T01:10:49.643Z,99454.16
2022-10-11T01:14:09.814Z,99457.22
2022-10-11T01:16:55.310Z,99454.88
2022-10-11T01:19:40.994Z,99447.31
2022-10-11T01:22:46.059Z,99449.84
2022-10-11T01:25:51.158Z,99444.41
2022-10-11T01:28:44.255Z,99436.53
2022-10-11T01:31:36.693Z,99442.81
2022-10-11T01:34:33.164Z,99440.50
2022-10-11T01:37:27.231Z,99441.97
2022-10-11T01:40:20.318Z,99440.69
2022-10-11T01:43:01.657Z,99431.09
2022-10-11T01:45:42.856Z,99428.81
2022-10-11T01:48:25.355Z,99433.94
2022-10-11T01:51:05.731Z,99432.94
2022-10-11T01:53:55.990Z,99433.94
2022-10-11T01:57:10.422Z,99434.56
2022-10-11T01:59:57.644Z,99431.28
2022-10-11T02:03:04.993Z,99434.38
2022-10-11T02:06:08.897Z,99433.44
2022-10-11T02:08:52.735Z,99437.38
2022-10-11T02:11:34.701Z,99421.19
2022-10-11T02:14:20.548Z,99422.38
2022-10-11T02:17:16.679Z,99432.75
2022-10-11T02:19:59.401Z,99431.91
2022-10-11T02:22:45.583Z,99435.69
2022-10-11T02:25:30.843Z,99434.53
2022-10-11T02:28:17.730Z,99434.66
2022-10-11T02:31:01.229Z,99430.88
2022-10-11T02:33:47.948Z,99436.09
2022-10-11T02:36:59.576Z,99440.44
2022-10-11T02:39:46.331Z,99437.13
2022-10-11T02:42:36.497Z,99443.50
2022-10-11T02:45:21.019Z,99442.47
2022-10-11T02:48:01.678Z,99444.78
2022-10-11T02:50:40.374Z,99440.84
2022-10-11T02:53:20.886Z,99453.00
2022-10-11T02:55:59.225Z,99446.94
2022-10-11T02:58:38.710Z,99434.81
2022-10-11T03:01:15.661Z,99435.63
2022-10-11T03:03:53.764Z,99443.91
2022-10-11T03:06:33.320Z,99443.28
2022-10-11T03:09:13.117Z,99441.41
2022-10-11T03:11:53.551Z,99436.19
2022-10-11T03:14:59.170Z,99434.72
2022-10-11T03:17:37.629Z,99432.25
2022-10-11T03:20:16.994Z,99432.91
2022-10-11T03:22:56.728Z,99444.78
2022-10-11T03:25:34.671Z,99443.06
2022-10-11T03:28:13.805Z,99446.97
2022-10-11T03:30:52.375Z,99444.22
2022-10-11T03:33:32.765Z,99454.28
2022-10-11T03:36:12.539Z,99446.06
2022-10-11T03:38:52.373Z,99454.09
2022-10-11T03:41:34.169Z,99452.41
2022-10-11T03:44:14.343Z,99453.09
2022-10-11T03:46:53.355Z,99461.00
2022-10-11T03:49:33.236Z,99461.41
2022-10-11T03:52:11.877Z,99456.66
2022-10-11T03:54:51.283Z,99467.38
2022-10-11T03:57:31.011Z,99454.72
2022-10-11T04:00:11.119Z,99459.81
2022-10-11T04:02:48.606Z,99466.22
2022-10-11T04:05:31.729Z,99459.31
2022-10-11T04:08:13.836Z,99466.25
2022-10-11T04:10:51.866Z,99463.13
2022-10-11T04:13:31.473Z,99469.41
2022-10-11T04:16:09.927Z,99469.19
2022-10-11T04:18:50.464Z,99461.09
2022-10-11T04:21:30.905Z,99460.25
2022-10-11T04:24:13.760Z,99465.03
2022-10-11T04:26:52.329Z,99466.50
2022-10-11T04:29:32.781Z,99457.44
2022-10-11T04:32:13.320Z,99462.25
2022-10-11T04:34:54.559Z,99465.94
2022-10-11T04:37:34.523Z,99453.53
2022-10-11T04:40:16.402Z,99459.81
2022-10-11T04:42:56.506Z,99457.00
2022-10-11T04:45:47.213Z,99456.00
2022-10-11T04:48:26.574Z,99456.84
2022-10-11T04:51:05.452Z,99462.28
2022-10-11T04:53:43.275Z,99464.94
2022-10-11T04:56:22.745Z,99467.56
2022-10-11T04:59:02.955Z,99459.97
2022-10-11T05:01:39.233Z,99458.00
2022-10-11T05:04:18.951Z,99456.03
2022-10-11T05:06:59.799Z,99460.97
2022-10-11T05:09:40.215Z,99464.28
2022-10-11T05:12:20.268Z,99463.44
2022-10-11T05:14:59.563Z,99467.06
2022-10-11T05:17:38.248Z,99472.84
2022-10-11T05:20:17.949Z,99476.78
2022-10-11T05:22:56.219Z,99469.97
2022-10-11T05:25:36.627Z,99474.69
2022-10-11T05:28:15.625Z,99475.81
2022-10-11T05:30:57.581Z,99472.88
2022-10-11T05:33:35.893Z,99481.84
2022-10-11T05:36:15.278Z,99494.88
2022-10-11T05:38:54.814Z,99485.31
2022-10-11T05:41:32.739Z,99488.00
2022-10-11T05:44:11.513Z,99493.53
2022-10-11T05:47:34.052Z,99500.50
2022-10-11T05:50:13.080Z,99497.09
2022-10-11T05:52:51.625Z,99499.03
2022-10-11T05:55:29.710Z,99501.72
2022-10-11T05:58:18.733Z,99511.84
2022-10-11T06:00:57.768Z,99512.19
2022-10-11T06:03:35.502Z,99510.69
2022-10-11T06:06:13.964Z,99519.41
2022-10-11T06:08:53.267Z,99523.28
2022-10-11T06:11:31.761Z,99517.22
2022-10-11T06:14:26.055Z,99520.81
2022-10-11T06:17:14.162Z,99523.56
2022-10-11T06:20:07.633Z,99532.28
2022-10-11T06:22:46.158Z,99528.00
2022-10-11T06:25:24.677Z,99529.03
2022-10-11T06:28:02.868Z,99534.34
2022-10-11T06:30:56.770Z,99539.56
2022-10-11T06:33:53.667Z,99537.88
2022-10-11T06:36:50.286Z,99530.78
2022-10-11T06:39:52.232Z,99523.56
2022-10-11T06:42:49.741Z,99527.91
2022-10-11T06:45:43.184Z,99532.00
2022-10-11T06:48:47.631Z,99538.56
2022-10-11T06:51:45.722Z,99540.34
2022-10-11T06:54:45.054Z,99539.25
2022-10-11T06:57:23.832Z,99545.22
2022-10-11T07:00:20.718Z,99540.56
2022-10-11T07:03:00.343Z,99539.75
2022-10-11T07:05:39.440Z,99539.50
2022-10-11T07:08:37.052Z,99548.56
2022-10-11T07:11:18.354Z,99541.72
2022-10-11T07:14:11.976Z,99541.06
2022-10-11T07:16:50.450Z,99553.91
2022-10-11T07:19:28.788Z,99549.63
2022-10-11T07:22:36.047Z,99549.59
2022-10-11T07:25:35.811Z,99548.25
2022-10-11T07:28:35.215Z,99552.72
2022-10-11T07:31:19.913Z,99542.91
2022-10-11T07:33:58.073Z,99549.63
2022-10-11T07:36:54.965Z,99549.47
2022-10-11T07:39:51.706Z,99551.25
2022-10-11T07:42:44.593Z,99547.63
2022-10-11T07:45:22.226Z,99553.28
2022-10-11T07:48:00.314Z,99561.19
2022-10-11T07:50:38.543Z,99554.38
2022-10-11T07:53:16.839Z,99553.25
2022-10-11T07:56:12.619Z,99567.44
2022-10-11T07:59:03.941Z,99550.59
2022-10-11T08:01:56.899Z,99565.19
2022-10-11T08:04:53.871Z,99569.81
2022-10-11T08:07:55.790Z,99566.53
2022-10-11T08:10:38.776Z,99569.78
2022-10-11T08:13:17.524Z,99567.13
2022-10-11T08:15:57.405Z,99566.03
2022-10-11T08:18:56.969Z,99566.06
2022-10-11T08:22:06.576Z,99563.72
2022-10-11T08:25:01.473Z,99580.13
2022-10-11T08:27:39.346Z,99571.38
2022-10-11T08:30:37.161Z,99570.50
2022-10-11T08:33:39.809Z,99573.56
2022-10-11T08:36:15.957Z,99566.56
2022-10-11T08:38:51.692Z,99560.56
2022-10-11T08:42:12.227Z,99563.75
2022-10-11T08:45:10.650Z,99567.00
2022-10-11T08:48:19.907Z,99557.53
2022-10-11T08:51:02.774Z,99562.31
2022-10-11T08:53:45.356Z,99566.78
2022-10-11T08:56:15.106Z,99567.50
2022-10-11T08:58:46.773Z,99566.56
2022-10-11T09:01:20.674Z,99566.13
2022-10-11T09:03:48.877Z,99561.16
2022-10-11T09:06:16.290Z,99559.91
2022-10-11T09:09:20.682Z,99561.00
2022-10-11T09:11:57.285Z,99564.56
2022-10-11T09:14:43.019Z,99568.78
2022-10-11T09:17:25.765Z,99573.94
2022-10-11T09:20:31.077Z,99572.47
2022-10-11T09:23:26.188Z,99580.53
2022-10-11T09:26:06.278Z,99567.06
2022-10-11T09:28:34.064Z,99576.00
2022-10-11T09:31:01.615Z,99577.41
2022-10-11T09:33:36.862Z,99574.59
2022-10-11T09:36:14.319Z,99566.72
2022-10-11T09:38:53.755Z,99567.22
2022-10-11T09:41:46.696Z,99567.75
2022-10-11T09:44:24.342Z,99568.81
2022-10-11T09:46:54.196Z,99567.97
2022-10-11T09:49:28.980Z,99569.06
2022-10-11T09:51:59.064Z,99564.09
2022-10-11T09:54:41.439Z,99565.44
2022-10-11T09:57:33.959Z,99569.31
2022-10-11T10:00:18.689Z,99558.03
2022-10-11T10:02:57.282Z,99560.75
2022-10-11T10:05:31.300Z,99564.28
2022-10-11T10:08:10.760Z,99563.59
2022-10-11T10:10:42.713Z,99558.97
2022-10-11T10:13:22.005Z,99561.13
2022-10-11T10:15:53.716Z,99549.78
2022-10-11T10:18:24.759Z,99552.03
2022-10-11T10:20:55.649Z,99552.97
2022-10-11T10:23:27.654Z,99548.78
2022-10-11T10:26:20.397Z,99558.75
2022-10-11T10:29:09.010Z,99554.31
2022-10-11T10:31:55.255Z,99545.63
2022-10-11T10:34:31.203Z,99546.44
2022-10-11T10:37:28.140Z,99554.22
2022-10-11T10:40:09.250Z,99555.50
2022-10-11T10:42:37.559Z,99564.81
2022-10-11T10:45:12.278Z,99558.72
2022-10-11T10:47:50.027Z,99556.75
2022-10-11T10:50:27.410Z,99554.31
2022-10-11T10:53:06.642Z,99550.31
2022-10-11T10:55:46.778Z,99550.06
2022-10-11T10:58:35.681Z,99544.44
2022-10-11T11:01:13.425Z,99544.88
2022-10-11T11:04:02.037Z,99541.69
2022-10-11T11:06:43.372Z,99548.22
2022-10-11T11:09:27.680Z,99546.66
2022-10-11T11:11:57.901Z,99554.84
2022-10-11T11:14:41.524Z,99542.56
2022-10-11T11:17:24.102Z,99546.00
2022-10-11T11:20:25.295Z,99542.94
2022-10-11T11:23:02.592Z,99539.03
2022-10-11T11:25:51.715Z,99540.19
2022-10-11T11:28:37.906Z,99540.19
2022-10-11T11:31:19.591Z,99545.34
2022-10-11T11:34:10.118Z,99549.56
2022-10-11T11:36:43.488Z,99537.47
2022-10-11T11:39:19.239Z,99542.69
2022-10-11T11:41:59.992Z,99548.44
2022-10-11T11:44:38.419Z,99536.13
2022-10-11T11:47:25.791Z,99547.22
2022-10-11T11:50:05.824Z,99545.56
2022-10-11T11:52:38.980Z,99535.59
2022-10-11T11:55:27.974Z,99536.84
2022-10-11T11:58:32.919Z,99525.78
2022-10-11T12:01:31.073Z,99526.00
2022-10-11T12:04:12.676Z,99521.31
2022-10-11T12:06:52.387Z,99512.72
2022-10-11T12:09:23.448Z,99519.03
2022-10-11T12:12:00.232Z,99517.75
2022-10-11T12:14:35.856Z,99522.28
2022-10-11T12:17:06.044Z,99521.22
2022-10-11T12:19:34.028Z,99516.22
2022-10-11T12:22:26.361Z,99522.03
2022-10-11T12:25:09.259Z,99520.34
2022-10-11T12:27:52.011Z,99517.88
2022-10-11T12:30:44.487Z,99512.91
2022-10-11T12:33:42.840Z,99508.22
2022-10-11T12:36:32.347Z,99517.47
2022-10-11T12:39:18.386Z,99507.03
2022-10-11T12:41:48.909Z,99502.00
2022-10-11T12:44:20.031Z,99512.28
2022-10-11T12:46:50.094Z,99509.31
2022-10-11T12:49:48.464Z,99508.59
2022-10-11T12:52:28.450Z,99502.88
2022-10-11T12:55:31.340Z,99511.78
2022-10-11T12:58:23.180Z,99507.03
2022-10-11T13:00:56.335Z,99504.03
2022-10-11T13:03:32.765Z,99509.41
2022-10-11T13:06:15.702Z,99508.41
2022-10-11T13:08:47.462Z,99506.78
2022-10-11T13:11:21.164Z,99510.59
2022-10-11T13:13:54.179Z,99508.25
2022-10-11T13:16:26.556Z,99506.63
2022-10-11T13:18:59.718Z,99509.84
2022-10-11T13:21:39.372Z,99504.34
2022-10-11T13:24:18.693Z,99499.13
2022-10-11T13:26:49.236Z,99502.06
2022-10-11T13:29:27.650Z,99501.44
2022-10-11T13:31:55.992Z,99506.03
2022-10-11T13:34:24.424Z,99497.72
2022-10-11T13:36:59.286Z,99495.91
2022-10-11T13:39:34.427Z,99490.75
2022-10-11T13:42:07.123Z,99494.47
2022-10-11T13:44:37.535Z,99498.84
2022-10-11T13:47:05.461Z,99502.47
2022-10-11T13:49:38.448Z,99491.56
2022-10-11T13:52:21.729Z,99497.25
2022-10-11T13:55:00.796Z,99496.03
2022-10-11T13:57:39.015Z,99506.25
2022-10-11T14:00:15.663Z,99508.28
2022-10-11T14:02:58.100Z,99500.75
2022-10-11T14:05:30.597Z,99496.56
2022-10-11T14:08:00.887Z,99502.97
2022-10-11T14:10:28.867Z,99504.09
2022-10-11T14:13:03.832Z,99507.72
2022-10-11T14:15:34.587Z,99510.47
2022-10-11T14:18:22.732Z,99515.72
2022-10-11T14:20:50.279Z,99512.53
2022-10-11T14:23:17.934Z,99513.91
2022-10-11T14:25:46.345Z,99518.06
2022-10-11T14:28:13.967Z,99504.69
2022-10-11T14:30:42.979Z,99508.34
2022-10-11T14:33:11.492Z,99513.88
2022-10-11T14:35:41.568Z,99515.81
2022-10-11T14:38:11.753Z,99506.53
2022-10-11T14:40:39.264Z,99507.72
2022-10-11T14:43:06.830Z,99506.13
2022-10-11T14:45:35.368Z,99511.78
2022-10-11T14:48:02.950Z,99509.41
2022-10-11T14:50:30.431Z,99516.78
2022-10-11T14:52:58.215Z,99516.31
2022-10-11T14:55:27.240Z,99519.81
2022-10-11T14:57:56.311Z,99510.38
2022-10-11T15:00:29.656Z,99510.66
2022-10-11T15:02:57.938Z,99508.09
2022-10-11T15:05:33.651Z,99513.97
2022-10-11T15:08:04.416Z,99508.78
2022-10-11T15:10:40.712Z,99512.97
2022-10-11T15:13:09.017Z,99509.59
2022-10-11T15:15:40.866Z,99519.44
2022-10-11T15:18:13.348Z,99518.75
2022-10-11T15:20:44.111Z,99521.81
2022-10-11T15:23:12.217Z,99526.81
2022-10-11T15:25:42.042Z,99533.78
2022-10-11T15:28:23.264Z,99528.91
2022-10-11T15:30:51.156Z,99523.69
2022-10-11T15:33:18.855Z,99529.09
2022-10-11T15:35:46.483Z,99531.34
2022-10-11T15:38:21.802Z,99529.75
2022-10-11T15:40:50.466Z,99532.91
2022-10-11T15:43:23.467Z,99536.28
2022-10-11T15:45:52.296Z,99539.13
2022-10-11T15:48:21.902Z,99540.41
2022-10-11T15:50:50.320Z,99544.31
2022-10-11T15:53:23.308Z,99548.84
2022-10-11T15:55:53.141Z,99547.22
2022-10-11T15:58:26.424Z,99549.66
2022-10-11T16:00:57.026Z,99552.75
2022-10-11T16:03:27.387Z,99553.06
2022-10-11T16:05:55.546Z,99559.81
2022-10-11T16:08:23.445Z,99557.16
2022-10-11T16:10:51.215Z,99561.00
2022-10-11T16:13:18.927Z,99561.75
2022-10-11T16:15:47.208Z,99561.94
2022-10-11T16:18:17.260Z,99561.72
2022-10-11T16:20:47.132Z,99567.91
2022-10-11T16:23:15.540Z,99567.91
2022-10-11T16:25:43.375Z,99575.94
2022-10-11T16:28:11.501Z,99580.56
2022-10-11T16:30:43.174Z,99581.50
2022-10-11T16:33:11.012Z,99583.34
2022-10-11T16:35:42.516Z,99585.81
2022-10-11T16:38:14.985Z,99585.75
2022-10-11T16:40:43.475Z,99587.13
2022-10-11T16:43:10.998Z,99589.41
2022-10-11T16:45:38.528Z,99593.72
2022-10-11T16:48:06.045Z,99592.84
2022-10-11T16:50:39.090Z,99594.00
2022-10-11T16:53:08.116Z,99597.03
2022-10-11T16:55:35.694Z,99597.19
2022-10-11T16:58:03.201Z,99600.41
2022-10-11T17:00:33.439Z,99604.03
2022-10-11T17:03:01.512Z,99601.13
2022-10-11T17:05:28.985Z,99598.66
2022-10-11T17:07:56.757Z,99607.53
2022-10-11T17:10:39.399Z,99605.75
2022-10-11T17:13:07.367Z,99608.09
2022-10-11T17:15:36.110Z,99609.59
2022-10-11T17:18:03.846Z,99606.31
2022-10-11T17:20:31.444Z,99601.75
2022-10-11T17:22:58.900Z,99604.50
2022-10-11T17:25:26.399Z,99610.84
2022-10-11T17:27:56.321Z,99610.50
2022-10-11T17:30:24.902Z,99610.84
2022-10-11T17:32:52.552Z,99614.00
2022-10-11T17:35:20.202Z,99626.78
2022-10-11T17:37:49.865Z,99620.31
2022-10-11T17:40:17.724Z,99622.78
2022-10-11T17:42:45.264Z,99624.66
2022-10-11T17:45:14.606Z,99627.31
2022-10-11T17:47:42.090Z,99624.16
2022-10-11T17:50:09.787Z,99627.75
2022-10-11T17:52:37.367Z,99627.03
2022-10-11T17:55:05.374Z,99625.25
2022-10-11T17:57:32.904Z,99629.91
2022-10-11T18:00:02.037Z,99624.78
2022-10-11T18:02:32.441Z,99624.84
2022-10-11T18:05:00.051Z,99626.97
2022-10-11T18:07:27.634Z,99627.84
2022-10-11T18:09:55.530Z,99624.22
2022-10-11T18:12:23.671Z,99628.38
2022-10-11T18:14:51.176Z,99630.06
2022-10-11T18:17:19.089Z,99628.88
2022-10-11T18:19:47.660Z,99633.44
2022-10-11T18:22:15.303Z,99646.59
2022-10-11T18:24:42.862Z,99643.22
2022-10-11T18:27:10.299Z,99644.19
2022-10-11T18:29:38.498Z,99642.03
2022-10-11T18:32:06.023Z,99643.34
2022-10-11T18:34:33.551Z,99641.31
2022-10-11T18:37:01.036Z,99646.59
2022-10-11T18:39:28.823Z,99639.81
2022-10-11T18:41:56.641Z,99641.78
2022-10-11T18:44:24.151Z,99635.25
2022-10-11T18:46:51.849Z,99641.34
2022-10-11T18:49:19.728Z,99630.06
2022-10-11T18:51:47.987Z,99631.78
2022-10-11T18:54:20.147Z,99635.97
2022-10-11T18:56:49.104Z,99635.19
2022-10-11T18:59:16.974Z,99633.81
2022-10-11T19:01:44.780Z,99634.75
2022-10-11T19:04:16.128Z,99630.84
2022-10-11T19:06:49.254Z,99634.31
2022-10-11T19:09:21.845Z,99636.16
2022-10-11T19:11:50.770Z,99643.84
2022-10-11T19:14:21.071Z,99642.69
2022-10-11T19:16:51.473Z,99638.53
2022-10-11T19:19:23.486Z,99645.97
2022-10-11T19:21:51.529Z,99649.91
2022-10-11T19:24:21.461Z,99648.59
2022-10-11T19:26:52.757Z,99650.25
2022-10-11T19:29:24.696Z,99641.00
2022-10-11T19:31:54.427Z,99645.66
2022-10-11T19:34:23.227Z,99647.63
2022-10-11T19:36:52.753Z,99650.84
2022-10-11T19:39:22.043Z,99655.28
2022-10-11T19:41:49.559Z,99658.25
2022-10-11T19:44:17.561Z,99648.16
2022-10-11T19:46:51.628Z,99653.31
2022-10-11T19:49:25.783Z,99645.22
2022-10-11T19:51:53.821Z,99648.50
2022-10-11T19:54:21.379Z,99642.56
2022-10-11T19:56:49.022Z,99653.81
2022-10-11T19:59:16.947Z,99656.47
2022-10-11T20:01:49.398Z,99652.19
2022-10-11T20:04:39.956Z,99654.78
2022-10-11T20:07:06.227Z,99657.94
2022-10-11T20:09:33.787Z,99660.59
2022-10-11T20:12:01.234Z,99667.34
2022-10-11T20:14:28.757Z,99666.53
2022-10-11T20:16:56.523Z,99661.44
2022-10-11T20:19:30.607Z,99671.31
2022-10-11T20:22:00.561Z,99661.25
2022-10-11T20:24:32.669Z,99663.22
2022-10-11T20:27:05.376Z,99660.94
2022-10-11T20:29:32.837Z,99665.03
2022-10-11T20:32:00.427Z,99663.53
2022-10-11T20:34:28.226Z,99664.50
2022-10-11T20:36:55.824Z,99664.50
2022-10-11T20:39:23.822Z,99670.47
2022-10-11T20:41:51.390Z,99669.56
2022-10-11T20:44:18.950Z,99675.00
2022-10-11T20:46:46.494Z,99677.94
2022-10-11T20:49:14.000Z,99667.88
2022-10-11T20:51:42.630Z,99668.84
2022-10-11T20:54:10.859Z,99675.25
2022-10-11T20:56:38.921Z,99669.66
2022-10-11T20:59:07.247Z,99667.91
2022-10-11T21:01:39.874Z,99672.94
2022-10-11T21:04:14.280Z,99668.22
2022-10-11T21:06:42.042Z,99677.94
2022-10-11T21:09:11.347Z,99673.16
2022-10-11T21:11:41.648Z,99666.13
2022-10-11T21:14:09.151Z,99667.31
2022-10-11T21:16:36.742Z,99672.63
2022-10-11T21:19:04.304Z,99672.44
2022-10-11T21:21:31.919Z,99671.91
2022-10-11T21:24:01.142Z,99678.72
2022-10-11T21:26:30.513Z,99669.16
2022-10-11T21:29:01.044Z,99673.06
2022-10-11T21:31:33.809Z,99671.84
2022-10-11T21:34:02.736Z,99673.06
2022-10-11T21:36:30.387Z,99673.25
2022-10-11T21:38:57.843Z,99681.59
2022-10-11T21:41:26.617Z,99675.88
2022-10-11T21:43:54.099Z,99673.88
2022-10-11T21:46:32.502Z,99672.59
2022-10-11T21:49:09.490Z,99685.06
2022-10-11T21:51:36.955Z,99673.63
2022-10-11T21:54:05.289Z,99676.03
2022-10-11T21:56:32.862Z,99678.84
2022-10-11T21:59:00.384Z,99679.63
2022-10-11T22:01:28.093Z,99675.13
2022-10-11T22:03:55.660Z,99677.59
2022-10-11T22:06:23.290Z,99674.66
2022-10-11T22:08:52.717Z,99673.22
2022-10-11T22:11:20.227Z,99671.81
2022-10-11T22:13:47.799Z,99674.03
2022-10-11T22:16:15.844Z,99677.97
2022-10-11T22:18:43.601Z,99675.34
2022-10-11T22:21:15.418Z,99672.38
2022-10-11T22:23:45.005Z,99680.53
2022-10-11T22:26:25.043Z,99676.28
2022-10-11T22:28:53.523Z,99674.47
2022-10-11T22:31:22.554Z,99681.13
2022-10-11T22:33:54.919Z,99678.50
2022-10-11T22:36:24.305Z,99677.25
2022-10-11T22:38:52.718Z,99678.91
2022-10-11T22:41:20.310Z,99675.22
2022-10-11T22:43:47.908Z,99678.50
2022-10-11T22:46:16.648Z,99676.69
2022-10-11T22:48:44.131Z,99675.09
2022-10-11T22:51:11.642Z,99678.03
2022-10-11T22:53:39.101Z,99670.66
2022-10-11T22:56:06.906Z,99673.00
2022-10-11T22:58:34.527Z,99670.41
2022-10-11T23:01:15.160Z,99671.56
2022-10-11T23:03:43.355Z,99669.53
2022-10-11T23:06:10.898Z,99680.19
2022-10-11T23:08:38.382Z,99678.38
2022-10-11T23:11:07.642Z,99678.38
2022-10-11T23:13:35.523Z,99676.84
2022-10-11T23:16:10.978Z,99675.22
2022-10-11T23:18:39.196Z,99684.88
2022-10-11T23:21:07.141Z,99682.34
2022-10-11T23:23:35.148Z,99680.31
2022-10-11T23:26:12.061Z,99685.84
2022-10-11T23:28:40.458Z,99680.31
2022-10-11T23:31:13.124Z,99684.41
2022-10-11T23:33:41.046Z,99688.09
2022-10-11T23:36:26.784Z,99683.94
2022-10-11T23:38:58.620Z,99687.09
2022-10-11T23:41:28.890Z,99692.31
2022-10-11T23:43:58.026Z,99698.81
2022-10-11T23:46:25.590Z,99696.41
2022-10-11T23:48:53.207Z,99694.00
2022-10-11T23:51:21.220Z,99700.69
2022-10-11T23:53:48.744Z,99682.56
2022-10-11T23:56:16.201Z,99695.78
2022-10-11T23:58:43.646Z,99692.03
